sensor_id;sensor_type;location;lat;lon;timestamp;P1;durP1;ratioP1;P2;durP2;ratioP2
3967;SDS011;9221;42.646;23.380;2023-11-21T00:00:09;5.50;;;1.30;;
3967;SDS011;9221;42.646;23.380;2023-11-21T00:02:36;4.07;;;1.17;;
3967;SDS011;9221;42.646;23.380;2023-11-21T00:05:05;3.10;;;1.30;;
3967;SDS011;9221;42.646;23.380;2023-11-21T00:07:32;5.50;;;1.50;;
3967;SDS011;9221;42.646;23.380;2023-11-21T00:09:58;3.37;;;1.23;;
3967;SDS011;9221;42.646;23.380;2023-11-21T00:12:23;5.73;;;1.33;;
3967;SDS011;9221;42.646;23.380;2023-11-21T00:14:49;4.33;;;1.60;;
3967;SDS011;9221;42.646;23.380;2023-11-21T00:17:15;2.50;;;1.07;;
3967;SDS011;9221;42.646;23.380;2023-11-21T00:19:40;5.17;;;1.30;;
3967;SDS011;9221;42.646;23.380;2023-11-21T00:22:07;3.57;;;1.43;;
3967;SDS011;9221;42.646;23.380;2023-11-21T00:24:34;5.80;;;1.40;;
3967;SDS011;9221;42.646;23.380;2023-11-21T00:26:59;3.00;;;1.50;;
3967;SDS011;9221;42.646;23.380;2023-11-21T00:29:25;2.83;;;1.27;;
3967;SDS011;9221;42.646;23.380;2023-11-21T00:31:51;5.53;;;1.87;;
3967;SDS011;9221;42.646;23.380;2023-11-21T00:34:16;4.37;;;1.93;;
3967;SDS011;9221;42.646;23.380;2023-11-21T00:36:42;3.67;;;1.70;;
3967;SDS011;9221;42.646;23.380;2023-11-21T00:39:07;5.80;;;1.63;;
3967;SDS011;9221;42.646;23.380;2023-11-21T00:41:33;2.70;;;1.27;;
3967;SDS011;9221;42.646;23.380;2023-11-21T00:44:00;3.80;;;1.50;;
3967;SDS011;9221;42.646;23.380;2023-11-21T00:46:25;5.70;;;1.60;;
3967;SDS011;9221;42.646;23.380;2023-11-21T00:48:54;4.40;;;1.47;;
3967;SDS011;9221;42.646;23.380;2023-11-21T00:51:19;4.57;;;1.63;;
3967;SDS011;9221;42.646;23.380;2023-11-21T00:53:45;5.40;;;1.80;;
3967;SDS011;9221;42.646;23.380;2023-11-21T00:56:11;3.47;;;1.43;;
3967;SDS011;9221;42.646;23.380;2023-11-21T00:58:37;5.27;;;1.67;;
3967;SDS011;9221;42.646;23.380;2023-11-21T01:01:02;6.50;;;1.67;;
3967;SDS011;9221;42.646;23.380;2023-11-21T01:03:28;3.50;;;1.50;;
3967;SDS011;9221;42.646;23.380;2023-11-21T01:05:54;10.50;;;2.53;;
3967;SDS011;9221;42.646;23.380;2023-11-21T01:08:19;4.57;;;1.80;;
3967;SDS011;9221;42.646;23.380;2023-11-21T01:10:45;5.63;;;2.17;;
3967;SDS011;9221;42.646;23.380;2023-11-21T01:13:10;4.43;;;1.83;;
3967;SDS011;9221;42.646;23.380;2023-11-21T01:15:36;5.60;;;1.80;;
3967;SDS011;9221;42.646;23.380;2023-11-21T01:18:01;5.50;;;2.07;;
3967;SDS011;9221;42.646;23.380;2023-11-21T01:20:27;7.73;;;2.27;;
3967;SDS011;9221;42.646;23.380;2023-11-21T01:22:52;4.47;;;2.00;;
3967;SDS011;9221;42.646;23.380;2023-11-21T01:25:18;9.40;;;2.50;;
3967;SDS011;9221;42.646;23.380;2023-11-21T01:27:46;6.60;;;2.73;;
3967;SDS011;9221;42.646;23.380;2023-11-21T01:30:12;9.50;;;3.20;;
3967;SDS011;9221;42.646;23.380;2023-11-21T01:32:38;12.83;;;3.10;;
3967;SDS011;9221;42.646;23.380;2023-11-21T01:35:04;16.63;;;2.97;;
3967;SDS011;9221;42.646;23.380;2023-11-21T01:37:31;12.30;;;2.80;;
3967;SDS011;9221;42.646;23.380;2023-11-21T01:39:58;8.67;;;2.73;;
3967;SDS011;9221;42.646;23.380;2023-11-21T01:42:24;7.80;;;2.00;;
3967;SDS011;9221;42.646;23.380;2023-11-21T01:44:49;16.63;;;3.27;;
3967;SDS011;9221;42.646;23.380;2023-11-21T01:47:15;7.70;;;2.80;;
3967;SDS011;9221;42.646;23.380;2023-11-21T01:49:45;12.57;;;3.13;;
3967;SDS011;9221;42.646;23.380;2023-11-21T01:52:11;7.80;;;2.80;;
3967;SDS011;9221;42.646;23.380;2023-11-21T01:54:37;9.40;;;2.80;;
3967;SDS011;9221;42.646;23.380;2023-11-21T01:57:03;6.20;;;2.80;;
3967;SDS011;9221;42.646;23.380;2023-11-21T01:59:35;5.53;;;2.13;;
3967;SDS011;9221;42.646;23.380;2023-11-21T02:02:05;5.50;;;2.47;;
3967;SDS011;9221;42.646;23.380;2023-11-21T02:04:35;24.23;;;2.47;;
3967;SDS011;9221;42.646;23.380;2023-11-21T02:07:04;5.60;;;2.30;;
3967;SDS011;9221;42.646;23.380;2023-11-21T02:09:33;5.77;;;2.27;;
3967;SDS011;9221;42.646;23.380;2023-11-21T02:11:59;7.27;;;2.60;;
3967;SDS011;9221;42.646;23.380;2023-11-21T02:14:26;6.20;;;2.63;;
3967;SDS011;9221;42.646;23.380;2023-11-21T02:16:53;3.63;;;1.97;;
3967;SDS011;9221;42.646;23.380;2023-11-21T02:19:19;3.60;;;1.80;;
3967;SDS011;9221;42.646;23.380;2023-11-21T02:21:50;5.90;;;1.80;;
3967;SDS011;9221;42.646;23.380;2023-11-21T02:24:22;2.70;;;1.60;;
3967;SDS011;9221;42.646;23.380;2023-11-21T02:26:48;6.17;;;1.77;;
3967;SDS011;9221;42.646;23.380;2023-11-21T02:29:16;6.57;;;2.43;;
3967;SDS011;9221;42.646;23.380;2023-11-21T02:31:43;9.70;;;3.43;;
3967;SDS011;9221;42.646;23.380;2023-11-21T02:34:16;11.60;;;3.67;;
3967;SDS011;9221;42.646;23.380;2023-11-21T02:36:46;3.73;;;1.50;;
3967;SDS011;9221;42.646;23.380;2023-11-21T02:39:14;4.47;;;1.77;;
3967;SDS011;9221;42.646;23.380;2023-11-21T02:41:41;5.90;;;2.30;;
3967;SDS011;9221;42.646;23.380;2023-11-21T02:44:07;12.73;;;4.50;;
3967;SDS011;9221;42.646;23.380;2023-11-21T02:46:33;8.23;;;3.70;;
3967;SDS011;9221;42.646;23.380;2023-11-21T02:48:59;11.13;;;3.10;;
3967;SDS011;9221;42.646;23.380;2023-11-21T02:51:26;6.27;;;2.50;;
3967;SDS011;9221;42.646;23.380;2023-11-21T02:53:51;8.20;;;2.60;;
3967;SDS011;9221;42.646;23.380;2023-11-21T02:56:17;8.67;;;2.83;;
3967;SDS011;9221;42.646;23.380;2023-11-21T02:58:42;9.40;;;3.40;;
3967;SDS011;9221;42.646;23.380;2023-11-21T03:01:09;7.30;;;3.00;;
3967;SDS011;9221;42.646;23.380;2023-11-21T03:03:36;6.47;;;2.40;;
3967;SDS011;9221;42.646;23.380;2023-11-21T03:06:05;9.00;;;3.63;;
3967;SDS011;9221;42.646;23.380;2023-11-21T03:08:31;9.33;;;2.60;;
3967;SDS011;9221;42.646;23.380;2023-11-21T03:10:57;9.50;;;3.57;;
3967;SDS011;9221;42.646;23.380;2023-11-21T03:13:23;11.53;;;3.00;;
3967;SDS011;9221;42.646;23.380;2023-11-21T03:15:48;10.40;;;3.03;;
3967;SDS011;9221;42.646;23.380;2023-11-21T03:18:14;10.73;;;2.60;;
3967;SDS011;9221;42.646;23.380;2023-11-21T03:20:39;6.73;;;2.97;;
3967;SDS011;9221;42.646;23.380;2023-11-21T03:23:04;18.07;;;3.67;;
3967;SDS011;9221;42.646;23.380;2023-11-21T03:25:30;11.57;;;3.87;;
3967;SDS011;9221;42.646;23.380;2023-11-21T03:27:56;16.70;;;4.37;;
3967;SDS011;9221;42.646;23.380;2023-11-21T03:30:21;13.30;;;4.63;;
3967;SDS011;9221;42.646;23.380;2023-11-21T03:32:47;14.93;;;5.03;;
3967;SDS011;9221;42.646;23.380;2023-11-21T03:35:12;12.23;;;4.37;;
3967;SDS011;9221;42.646;23.380;2023-11-21T03:37:38;5.83;;;1.80;;
3967;SDS011;9221;42.646;23.380;2023-11-21T03:40:06;6.47;;;1.67;;
3967;SDS011;9221;42.646;23.380;2023-11-21T03:42:33;5.33;;;2.10;;
3967;SDS011;9221;42.646;23.380;2023-11-21T03:44:59;5.90;;;1.90;;
3967;SDS011;9221;42.646;23.380;2023-11-21T03:47:25;5.40;;;2.20;;
3967;SDS011;9221;42.646;23.380;2023-11-21T03:49:51;4.53;;;1.63;;
3967;SDS011;9221;42.646;23.380;2023-11-21T03:52:17;3.90;;;1.70;;
3967;SDS011;9221;42.646;23.380;2023-11-21T03:54:42;5.37;;;2.37;;
3967;SDS011;9221;42.646;23.380;2023-11-21T03:57:08;8.80;;;3.60;;
3967;SDS011;9221;42.646;23.380;2023-11-21T03:59:34;13.57;;;4.60;;
3967;SDS011;9221;42.646;23.380;2023-11-21T04:02:00;14.07;;;5.60;;
3967;SDS011;9221;42.646;23.380;2023-11-21T04:04:25;13.80;;;5.70;;
3967;SDS011;9221;42.646;23.380;2023-11-21T04:06:50;17.80;;;6.30;;
3967;SDS011;9221;42.646;23.380;2023-11-21T04:09:17;15.67;;;7.00;;
3967;SDS011;9221;42.646;23.380;2023-11-21T04:11:42;14.57;;;5.53;;
3967;SDS011;9221;42.646;23.380;2023-11-21T04:14:10;17.97;;;5.70;;
3967;SDS011;9221;42.646;23.380;2023-11-21T04:16:36;22.13;;;6.30;;
3967;SDS011;9221;42.646;23.380;2023-11-21T04:19:01;17.67;;;5.70;;
3967;SDS011;9221;42.646;23.380;2023-11-21T04:21:27;15.23;;;5.03;;
3967;SDS011;9221;42.646;23.380;2023-11-21T04:23:52;13.63;;;5.60;;
3967;SDS011;9221;42.646;23.380;2023-11-21T04:26:17;9.53;;;4.63;;
3967;SDS011;9221;42.646;23.380;2023-11-21T04:28:43;19.13;;;5.00;;
3967;SDS011;9221;42.646;23.380;2023-11-21T04:31:09;11.53;;;5.50;;
3967;SDS011;9221;42.646;23.380;2023-11-21T04:33:35;10.77;;;4.33;;
3967;SDS011;9221;42.646;23.380;2023-11-21T04:36:00;13.23;;;5.23;;
3967;SDS011;9221;42.646;23.380;2023-11-21T04:38:26;13.83;;;5.37;;
3967;SDS011;9221;42.646;23.380;2023-11-21T04:40:51;21.90;;;6.47;;
3967;SDS011;9221;42.646;23.380;2023-11-21T04:43:17;19.23;;;5.90;;
3967;SDS011;9221;42.646;23.380;2023-11-21T04:45:42;17.83;;;5.50;;
3967;SDS011;9221;42.646;23.380;2023-11-21T04:48:08;16.50;;;5.37;;
3967;SDS011;9221;42.646;23.380;2023-11-21T04:50:33;20.10;;;6.00;;
3967;SDS011;9221;42.646;23.380;2023-11-21T04:52:59;19.00;;;6.10;;
3967;SDS011;9221;42.646;23.380;2023-11-21T04:55:25;14.43;;;5.60;;
3967;SDS011;9221;42.646;23.380;2023-11-21T04:57:53;23.73;;;5.57;;
3967;SDS011;9221;42.646;23.380;2023-11-21T05:00:18;14.20;;;5.97;;
3967;SDS011;9221;42.646;23.380;2023-11-21T05:02:45;14.10;;;5.40;;
3967;SDS011;9221;42.646;23.380;2023-11-21T05:05:10;11.90;;;4.97;;
3967;SDS011;9221;42.646;23.380;2023-11-21T05:07:36;14.20;;;6.10;;
3967;SDS011;9221;42.646;23.380;2023-11-21T05:10:03;24.53;;;4.93;;
3967;SDS011;9221;42.646;23.380;2023-11-21T05:12:32;16.90;;;6.37;;
3967;SDS011;9221;42.646;23.380;2023-11-21T05:15:01;12.17;;;4.10;;
3967;SDS011;9221;42.646;23.380;2023-11-21T05:17:32;14.57;;;4.13;;
3967;SDS011;9221;42.646;23.380;2023-11-21T05:19:59;13.23;;;3.47;;
3967;SDS011;9221;42.646;23.380;2023-11-21T05:22:28;12.87;;;3.67;;
3967;SDS011;9221;42.646;23.380;2023-11-21T05:24:54;6.43;;;2.50;;
3967;SDS011;9221;42.646;23.380;2023-11-21T05:27:19;8.43;;;3.67;;
3967;SDS011;9221;42.646;23.380;2023-11-21T05:29:45;10.23;;;2.70;;
3967;SDS011;9221;42.646;23.380;2023-11-21T05:32:10;6.90;;;2.93;;
3967;SDS011;9221;42.646;23.380;2023-11-21T05:34:36;8.07;;;2.77;;
3967;SDS011;9221;42.646;23.380;2023-11-21T05:37:01;10.93;;;2.93;;
3967;SDS011;9221;42.646;23.380;2023-11-21T05:39:26;10.57;;;3.17;;
3967;SDS011;9221;42.646;23.380;2023-11-21T05:41:53;12.30;;;4.10;;
3967;SDS011;9221;42.646;23.380;2023-11-21T05:44:18;9.10;;;4.07;;
3967;SDS011;9221;42.646;23.380;2023-11-21T05:47:03;9.60;;;3.50;;
3967;SDS011;9221;42.646;23.380;2023-11-21T05:49:28;15.50;;;3.83;;
3967;SDS011;9221;42.646;23.380;2023-11-21T05:51:54;8.70;;;3.70;;
3967;SDS011;9221;42.646;23.380;2023-11-21T05:54:21;8.33;;;3.00;;
3967;SDS011;9221;42.646;23.380;2023-11-21T05:56:47;15.00;;;3.57;;
3967;SDS011;9221;42.646;23.380;2023-11-21T05:59:14;16.93;;;4.53;;
3967;SDS011;9221;42.646;23.380;2023-11-21T06:01:39;11.83;;;4.60;;
3967;SDS011;9221;42.646;23.380;2023-11-21T06:04:05;16.63;;;4.97;;
3967;SDS011;9221;42.646;23.380;2023-11-21T06:06:30;16.30;;;5.80;;
3967;SDS011;9221;42.646;23.380;2023-11-21T06:08:56;16.97;;;5.73;;
3967;SDS011;9221;42.646;23.380;2023-11-21T06:11:22;26.90;;;6.57;;
3967;SDS011;9221;42.646;23.380;2023-11-21T06:13:47;15.67;;;5.40;;
3967;SDS011;9221;42.646;23.380;2023-11-21T06:16:14;17.73;;;6.60;;
3967;SDS011;9221;42.646;23.380;2023-11-21T06:18:42;17.30;;;7.83;;
3967;SDS011;9221;42.646;23.380;2023-11-21T06:21:11;26.83;;;8.53;;
3967;SDS011;9221;42.646;23.380;2023-11-21T06:23:36;18.13;;;6.53;;
3967;SDS011;9221;42.646;23.380;2023-11-21T06:26:02;27.33;;;8.87;;
3967;SDS011;9221;42.646;23.380;2023-11-21T06:28:29;31.47;;;9.20;;
3967;SDS011;9221;42.646;23.380;2023-11-21T06:30:55;40.57;;;11.60;;
3967;SDS011;9221;42.646;23.380;2023-11-21T06:33:22;25.00;;;8.63;;
3967;SDS011;9221;42.646;23.380;2023-11-21T06:35:47;30.63;;;9.97;;
3967;SDS011;9221;42.646;23.380;2023-11-21T06:38:12;22.90;;;8.77;;
3967;SDS011;9221;42.646;23.380;2023-11-21T06:40:38;29.97;;;9.50;;
3967;SDS011;9221;42.646;23.380;2023-11-21T06:43:04;27.00;;;10.40;;
3967;SDS011;9221;42.646;23.380;2023-11-21T06:45:32;28.73;;;10.93;;
3967;SDS011;9221;42.646;23.380;2023-11-21T06:47:57;30.93;;;11.27;;
3967;SDS011;9221;42.646;23.380;2023-11-21T06:50:22;28.73;;;9.50;;
3967;SDS011;9221;42.646;23.380;2023-11-21T06:52:48;25.13;;;8.20;;
3967;SDS011;9221;42.646;23.380;2023-11-21T06:55:13;24.80;;;8.60;;
3967;SDS011;9221;42.646;23.380;2023-11-21T06:57:39;21.67;;;8.00;;
3967;SDS011;9221;42.646;23.380;2023-11-21T07:00:04;20.60;;;6.83;;
3967;SDS011;9221;42.646;23.380;2023-11-21T07:02:33;19.53;;;6.97;;
3967;SDS011;9221;42.646;23.380;2023-11-21T07:04:59;16.13;;;7.30;;
3967;SDS011;9221;42.646;23.380;2023-11-21T07:07:25;18.63;;;7.93;;
3967;SDS011;9221;42.646;23.380;2023-11-21T07:09:50;28.17;;;9.20;;
3967;SDS011;9221;42.646;23.380;2023-11-21T07:12:17;28.27;;;9.77;;
3967;SDS011;9221;42.646;23.380;2023-11-21T07:14:42;22.60;;;8.57;;
3967;SDS011;9221;42.646;23.380;2023-11-21T07:17:10;17.70;;;7.53;;
3967;SDS011;9221;42.646;23.380;2023-11-21T07:19:38;19.90;;;7.63;;
3967;SDS011;9221;42.646;23.380;2023-11-21T07:22:04;26.80;;;8.90;;
3967;SDS011;9221;42.646;23.380;2023-11-21T07:24:31;22.73;;;8.47;;
3967;SDS011;9221;42.646;23.380;2023-11-21T07:26:57;19.60;;;8.70;;
3967;SDS011;9221;42.646;23.380;2023-11-21T07:29:25;23.20;;;8.70;;
3967;SDS011;9221;42.646;23.380;2023-11-21T07:31:51;16.87;;;7.93;;
3967;SDS011;9221;42.646;23.380;2023-11-21T07:34:19;20.60;;;7.10;;
3967;SDS011;9221;42.646;23.380;2023-11-21T07:36:47;18.20;;;7.77;;
3967;SDS011;9221;42.646;23.380;2023-11-21T07:39:12;17.40;;;7.10;;
3967;SDS011;9221;42.646;23.380;2023-11-21T07:41:40;17.57;;;6.90;;
3967;SDS011;9221;42.646;23.380;2023-11-21T07:44:10;13.30;;;5.80;;
3967;SDS011;9221;42.646;23.380;2023-11-21T07:46:35;22.57;;;6.87;;
3967;SDS011;9221;42.646;23.380;2023-11-21T07:49:01;15.33;;;6.53;;
3967;SDS011;9221;42.646;23.380;2023-11-21T07:51:26;17.77;;;6.07;;
3967;SDS011;9221;42.646;23.380;2023-11-21T07:53:52;12.80;;;4.90;;
3967;SDS011;9221;42.646;23.380;2023-11-21T07:56:17;16.10;;;5.97;;
3967;SDS011;9221;42.646;23.380;2023-11-21T07:58:43;18.30;;;6.60;;
3967;SDS011;9221;42.646;23.380;2023-11-21T08:01:09;15.47;;;5.40;;
3967;SDS011;9221;42.646;23.380;2023-11-21T08:03:35;14.13;;;5.83;;
3967;SDS011;9221;42.646;23.380;2023-11-21T08:06:01;14.60;;;5.90;;
3967;SDS011;9221;42.646;23.380;2023-11-21T08:08:28;17.33;;;5.87;;
3967;SDS011;9221;42.646;23.380;2023-11-21T08:10:54;18.03;;;6.30;;
3967;SDS011;9221;42.646;23.380;2023-11-21T08:13:23;12.87;;;5.00;;
3967;SDS011;9221;42.646;23.380;2023-11-21T08:15:49;17.37;;;6.70;;
3967;SDS011;9221;42.646;23.380;2023-11-21T08:18:14;13.10;;;6.07;;
3967;SDS011;9221;42.646;23.380;2023-11-21T08:20:41;12.17;;;6.03;;
3967;SDS011;9221;42.646;23.380;2023-11-21T08:23:07;12.47;;;5.27;;
3967;SDS011;9221;42.646;23.380;2023-11-21T08:25:32;16.07;;;6.40;;
3967;SDS011;9221;42.646;23.380;2023-11-21T08:27:59;14.83;;;5.73;;
3967;SDS011;9221;42.646;23.380;2023-11-21T08:30:25;13.80;;;5.33;;
3967;SDS011;9221;42.646;23.380;2023-11-21T08:32:53;18.30;;;5.87;;
3967;SDS011;9221;42.646;23.380;2023-11-21T08:35:18;22.70;;;6.10;;
3967;SDS011;9221;42.646;23.380;2023-11-21T08:37:44;16.20;;;5.80;;
3967;SDS011;9221;42.646;23.380;2023-11-21T08:40:10;21.27;;;6.57;;
3967;SDS011;9221;42.646;23.380;2023-11-21T08:42:37;19.57;;;7.30;;
3967;SDS011;9221;42.646;23.380;2023-11-21T08:45:03;23.83;;;5.97;;
3967;SDS011;9221;42.646;23.380;2023-11-21T08:47:33;16.63;;;6.67;;
3967;SDS011;9221;42.646;23.380;2023-11-21T08:49:59;17.67;;;6.17;;
3967;SDS011;9221;42.646;23.380;2023-11-21T08:52:25;14.20;;;6.23;;
3967;SDS011;9221;42.646;23.380;2023-11-21T08:54:50;21.30;;;7.33;;
3967;SDS011;9221;42.646;23.380;2023-11-21T08:57:24;15.53;;;5.83;;
3967;SDS011;9221;42.646;23.380;2023-11-21T08:59:50;24.10;;;7.47;;
3967;SDS011;9221;42.646;23.380;2023-11-21T09:02:25;31.10;;;8.53;;
3967;SDS011;9221;42.646;23.380;2023-11-21T09:04:51;30.20;;;10.73;;
3967;SDS011;9221;42.646;23.380;2023-11-21T09:07:17;38.60;;;11.53;;
3967;SDS011;9221;42.646;23.380;2023-11-21T09:09:45;32.40;;;12.10;;
3967;SDS011;9221;42.646;23.380;2023-11-21T09:12:12;28.13;;;10.93;;
3967;SDS011;9221;42.646;23.380;2023-11-21T09:14:38;44.33;;;13.10;;
3967;SDS011;9221;42.646;23.380;2023-11-21T09:17:04;33.37;;;12.33;;
3967;SDS011;9221;42.646;23.380;2023-11-21T09:19:36;30.17;;;11.70;;
3967;SDS011;9221;42.646;23.380;2023-11-21T09:22:02;34.97;;;12.10;;
3967;SDS011;9221;42.646;23.380;2023-11-21T09:24:27;43.20;;;13.93;;
3967;SDS011;9221;42.646;23.380;2023-11-21T09:26:53;45.13;;;13.57;;
3967;SDS011;9221;42.646;23.380;2023-11-21T09:29:18;37.07;;;14.30;;
3967;SDS011;9221;42.646;23.380;2023-11-21T09:31:44;40.23;;;13.10;;
3967;SDS011;9221;42.646;23.380;2023-11-21T09:34:10;41.90;;;13.83;;
3967;SDS011;9221;42.646;23.380;2023-11-21T09:36:36;41.20;;;12.80;;
3967;SDS011;9221;42.646;23.380;2023-11-21T09:39:04;47.57;;;13.10;;
3967;SDS011;9221;42.646;23.380;2023-11-21T09:41:49;39.33;;;13.23;;
3967;SDS011;9221;42.646;23.380;2023-11-21T09:44:19;38.73;;;12.47;;
3967;SDS011;9221;42.646;23.380;2023-11-21T09:46:53;38.87;;;13.10;;
3967;SDS011;9221;42.646;23.380;2023-11-21T09:49:21;40.63;;;13.10;;
3967;SDS011;9221;42.646;23.380;2023-11-21T09:51:50;38.10;;;11.97;;
3967;SDS011;9221;42.646;23.380;2023-11-21T09:54:21;35.43;;;11.53;;
3967;SDS011;9221;42.646;23.380;2023-11-21T09:56:47;38.70;;;12.73;;
3967;SDS011;9221;42.646;23.380;2023-11-21T09:59:13;35.43;;;10.60;;
3967;SDS011;9221;42.646;23.380;2023-11-21T10:01:40;27.97;;;10.00;;
3967;SDS011;9221;42.646;23.380;2023-11-21T10:04:07;23.60;;;9.53;;
3967;SDS011;9221;42.646;23.380;2023-11-21T10:06:39;32.57;;;9.43;;
3967;SDS011;9221;42.646;23.380;2023-11-21T10:09:09;32.37;;;9.57;;
3967;SDS011;9221;42.646;23.380;2023-11-21T10:11:38;22.53;;;7.60;;
3967;SDS011;9221;42.646;23.380;2023-11-21T10:14:06;29.67;;;8.07;;
3967;SDS011;9221;42.646;23.380;2023-11-21T10:16:35;20.10;;;7.90;;
3967;SDS011;9221;42.646;23.380;2023-11-21T10:19:04;19.37;;;7.57;;
3967;SDS011;9221;42.646;23.380;2023-11-21T10:21:32;20.80;;;8.47;;
3967;SDS011;9221;42.646;23.380;2023-11-21T10:23:58;24.80;;;8.80;;
3967;SDS011;9221;42.646;23.380;2023-11-21T10:26:23;26.50;;;8.20;;
3967;SDS011;9221;42.646;23.380;2023-11-21T10:28:58;31.40;;;8.60;;
3967;SDS011;9221;42.646;23.380;2023-11-21T10:31:27;25.03;;;8.70;;
3967;SDS011;9221;42.646;23.380;2023-11-21T10:33:52;22.00;;;9.00;;
3967;SDS011;9221;42.646;23.380;2023-11-21T10:36:25;27.33;;;7.90;;
3967;SDS011;9221;42.646;23.380;2023-11-21T10:38:52;19.57;;;8.10;;
3967;SDS011;9221;42.646;23.380;2023-11-21T10:41:18;24.73;;;7.93;;
3967;SDS011;9221;42.646;23.380;2023-11-21T10:43:45;29.40;;;9.73;;
3967;SDS011;9221;42.646;23.380;2023-11-21T10:46:10;35.73;;;9.20;;
3967;SDS011;9221;42.646;23.380;2023-11-21T10:48:36;24.63;;;8.87;;
3967;SDS011;9221;42.646;23.380;2023-11-21T10:51:11;43.13;;;9.50;;
3967;SDS011;9221;42.646;23.380;2023-11-21T10:53:40;27.90;;;8.13;;
3967;SDS011;9221;42.646;23.380;2023-11-21T10:56:08;36.13;;;10.23;;
3967;SDS011;9221;42.646;23.380;2023-11-21T10:58:36;27.93;;;8.60;;
3967;SDS011;9221;42.646;23.380;2023-11-21T11:01:03;23.20;;;9.40;;
3967;SDS011;9221;42.646;23.380;2023-11-21T11:03:31;26.93;;;9.80;;
3967;SDS011;9221;42.646;23.380;2023-11-21T11:05:58;27.03;;;10.10;;
3967;SDS011;9221;42.646;23.380;2023-11-21T11:08:25;31.93;;;10.47;;
3967;SDS011;9221;42.646;23.380;2023-11-21T11:10:52;29.93;;;10.23;;
3967;SDS011;9221;42.646;23.380;2023-11-21T11:13:18;28.10;;;10.70;;
3967;SDS011;9221;42.646;23.380;2023-11-21T11:15:47;31.57;;;10.47;;
3967;SDS011;9221;42.646;23.380;2023-11-21T11:18:12;35.50;;;10.63;;
3967;SDS011;9221;42.646;23.380;2023-11-21T11:20:39;20.60;;;9.03;;
3967;SDS011;9221;42.646;23.380;2023-11-21T11:28:12;21.03;;;8.50;;
3967;SDS011;9221;42.646;23.380;2023-11-21T11:30:47;27.73;;;8.53;;
3967;SDS011;9221;42.646;23.380;2023-11-21T11:33:41;24.63;;;9.40;;
3967;SDS011;9221;42.646;23.380;2023-11-21T11:36:14;19.70;;;8.17;;
3967;SDS011;9221;42.646;23.380;2023-11-21T11:38:47;18.37;;;7.77;;
3967;SDS011;9221;42.646;23.380;2023-11-21T11:41:24;14.90;;;7.20;;
3967;SDS011;9221;42.646;23.380;2023-11-21T11:43:58;22.80;;;9.00;;
3967;SDS011;9221;42.646;23.380;2023-11-21T11:46:41;17.07;;;7.87;;
3967;SDS011;9221;42.646;23.380;2023-11-21T11:49:07;18.90;;;7.37;;
3967;SDS011;9221;42.646;23.380;2023-11-21T11:51:33;29.90;;;9.10;;
3967;SDS011;9221;42.646;23.380;2023-11-21T11:54:00;27.30;;;9.57;;
3967;SDS011;9221;42.646;23.380;2023-11-21T11:56:30;26.00;;;9.57;;
3967;SDS011;9221;42.646;23.380;2023-11-21T11:59:00;24.83;;;9.40;;
3967;SDS011;9221;42.646;23.380;2023-11-21T12:01:28;33.83;;;10.40;;
3967;SDS011;9221;42.646;23.380;2023-11-21T12:06:45;28.60;;;9.10;;
3967;SDS011;9221;42.646;23.380;2023-11-21T12:09:20;27.90;;;9.30;;
3967;SDS011;9221;42.646;23.380;2023-11-21T12:11:48;21.00;;;8.13;;
3967;SDS011;9221;42.646;23.380;2023-11-21T12:14:14;22.40;;;8.60;;
3967;SDS011;9221;42.646;23.380;2023-11-21T12:16:40;26.60;;;8.97;;
3967;SDS011;9221;42.646;23.380;2023-11-21T12:19:08;24.10;;;9.77;;
3967;SDS011;9221;42.646;23.380;2023-11-21T12:21:35;29.50;;;10.30;;
3967;SDS011;9221;42.646;23.380;2023-11-21T12:24:01;41.70;;;12.13;;
3967;SDS011;9221;42.646;23.380;2023-11-21T12:26:28;37.83;;;11.17;;
3967;SDS011;9221;42.646;23.380;2023-11-21T12:28:53;40.33;;;12.17;;
3967;SDS011;9221;42.646;23.380;2023-11-21T12:31:22;29.90;;;10.70;;
3967;SDS011;9221;42.646;23.380;2023-11-21T12:33:48;30.70;;;12.03;;
3967;SDS011;9221;42.646;23.380;2023-11-21T12:36:14;28.47;;;11.40;;
3967;SDS011;9221;42.646;23.380;2023-11-21T12:38:40;33.57;;;11.27;;
3967;SDS011;9221;42.646;23.380;2023-11-21T12:41:05;39.90;;;12.33;;
3967;SDS011;9221;42.646;23.380;2023-11-21T12:43:31;40.30;;;13.43;;
3967;SDS011;9221;42.646;23.380;2023-11-21T12:48:36;33.87;;;12.47;;
3967;SDS011;9221;42.646;23.380;2023-11-21T12:51:04;42.10;;;15.73;;
3967;SDS011;9221;42.646;23.380;2023-11-21T12:53:31;41.13;;;15.47;;
3967;SDS011;9221;42.646;23.380;2023-11-21T12:56:02;42.43;;;15.00;;
3967;SDS011;9221;42.646;23.380;2023-11-21T12:58:31;37.50;;;14.10;;
3967;SDS011;9221;42.646;23.380;2023-11-21T13:00:58;54.97;;;15.87;;
3967;SDS011;9221;42.646;23.380;2023-11-21T13:03:24;37.37;;;15.17;;
3967;SDS011;9221;42.646;23.380;2023-11-21T13:05:51;39.43;;;15.53;;
3967;SDS011;9221;42.646;23.380;2023-11-21T13:08:20;45.17;;;17.13;;
3967;SDS011;9221;42.646;23.380;2023-11-21T13:10:55;44.40;;;15.30;;
3967;SDS011;9221;42.646;23.380;2023-11-21T13:13:21;47.70;;;15.80;;
3967;SDS011;9221;42.646;23.380;2023-11-21T13:15:52;58.53;;;16.63;;
3967;SDS011;9221;42.646;23.380;2023-11-21T13:18:22;48.40;;;15.27;;
3967;SDS011;9221;42.646;23.380;2023-11-21T13:20:49;53.03;;;16.47;;
3967;SDS011;9221;42.646;23.380;2023-11-21T13:23:15;41.03;;;15.20;;
3967;SDS011;9221;42.646;23.380;2023-11-21T13:25:44;34.63;;;14.43;;
3967;SDS011;9221;42.646;23.380;2023-11-21T13:28:14;45.93;;;15.33;;
3967;SDS011;9221;42.646;23.380;2023-11-21T13:30:47;37.57;;;15.93;;
3967;SDS011;9221;42.646;23.380;2023-11-21T13:33:17;43.17;;;15.10;;
3967;SDS011;9221;42.646;23.380;2023-11-21T13:35:46;35.83;;;14.57;;
3967;SDS011;9221;42.646;23.380;2023-11-21T13:38:15;41.07;;;15.73;;
3967;SDS011;9221;42.646;23.380;2023-11-21T13:40:42;48.37;;;16.50;;
3967;SDS011;9221;42.646;23.380;2023-11-21T13:43:16;42.97;;;15.10;;
3967;SDS011;9221;42.646;23.380;2023-11-21T13:45:44;47.00;;;16.60;;
3967;SDS011;9221;42.646;23.380;2023-11-21T13:48:11;59.23;;;14.87;;
3967;SDS011;9221;42.646;23.380;2023-11-21T13:50:50;45.77;;;14.80;;
3967;SDS011;9221;42.646;23.380;2023-11-21T13:53:24;48.07;;;14.60;;
3967;SDS011;9221;42.646;23.380;2023-11-21T13:55:50;42.37;;;14.50;;
3967;SDS011;9221;42.646;23.380;2023-11-21T13:58:19;54.33;;;16.23;;
3967;SDS011;9221;42.646;23.380;2023-11-21T14:00:53;49.70;;;16.50;;
3967;SDS011;9221;42.646;23.380;2023-11-21T14:03:22;43.83;;;15.50;;
3967;SDS011;9221;42.646;23.380;2023-11-21T14:05:57;44.43;;;15.27;;
3967;SDS011;9221;42.646;23.380;2023-11-21T14:08:23;58.37;;;16.20;;
3967;SDS011;9221;42.646;23.380;2023-11-21T14:10:53;61.73;;;16.47;;
3967;SDS011;9221;42.646;23.380;2023-11-21T14:13:24;46.43;;;17.27;;
3967;SDS011;9221;42.646;23.380;2023-11-21T14:15:50;52.20;;;16.37;;
3967;SDS011;9221;42.646;23.380;2023-11-21T14:18:22;58.40;;;15.50;;
3967;SDS011;9221;42.646;23.380;2023-11-21T14:21:03;40.57;;;15.53;;
3967;SDS011;9221;42.646;23.380;2023-11-21T14:23:30;43.67;;;16.53;;
3967;SDS011;9221;42.646;23.380;2023-11-21T14:25:56;47.87;;;16.60;;
3967;SDS011;9221;42.646;23.380;2023-11-21T14:28:23;50.27;;;17.13;;
3967;SDS011;9221;42.646;23.380;2023-11-21T14:30:48;52.13;;;18.30;;
3967;SDS011;9221;42.646;23.380;2023-11-21T14:33:14;42.33;;;16.07;;
3967;SDS011;9221;42.646;23.380;2023-11-21T14:35:41;48.77;;;17.83;;
3967;SDS011;9221;42.646;23.380;2023-11-21T14:38:07;48.13;;;17.40;;
3967;SDS011;9221;42.646;23.380;2023-11-21T14:40:34;52.73;;;18.20;;
3967;SDS011;9221;42.646;23.380;2023-11-21T14:43:01;55.43;;;19.63;;
3967;SDS011;9221;42.646;23.380;2023-11-21T14:45:27;56.00;;;17.93;;
3967;SDS011;9221;42.646;23.380;2023-11-21T14:47:54;48.77;;;17.73;;
3967;SDS011;9221;42.646;23.380;2023-11-21T14:50:42;67.67;;;26.67;;
3967;SDS011;9221;42.646;23.380;2023-11-21T14:53:11;62.07;;;21.83;;
3967;SDS011;9221;42.646;23.380;2023-11-21T14:55:41;50.90;;;17.33;;
3967;SDS011;9221;42.646;23.380;2023-11-21T14:58:10;65.73;;;18.90;;